sensor_id;sensor_type;location;lat;lon;timestamp;temperature;humidity
75153;HTU21D;63734;45.218;36.708;2023-04-01T00:02:20;6.81;78.76
75153;HTU21D;63734;45.218;36.708;2023-04-01T00:04:46;6.78;78.82
75153;HTU21D;63734;45.218;36.708;2023-04-01T00:07:12;6.73;79.01
75153;HTU21D;63734;45.218;36.708;2023-04-01T00:09:38;6.71;79.31
75153;HTU21D;63734;45.218;36.708;2023-04-01T00:12:04;6.69;79.28
75153;HTU21D;63734;45.218;36.708;2023-04-01T00:14:30;6.69;79.02
75153;HTU21D;63734;45.218;36.708;2023-04-01T00:16:56;6.71;78.98
75153;HTU21D;63734;45.218;36.708;2023-04-01T00:19:22;6.72;78.79
75153;HTU21D;63734;45.218;36.708;2023-04-01T00:21:48;6.69;78.95
75153;HTU21D;63734;45.218;36.708;2023-04-01T00:24:14;6.70;79.21
75153;HTU21D;63734;45.218;36.708;2023-04-01T00:26:40;6.71;79.43
75153;HTU21D;63734;45.218;36.708;2023-04-01T00:29:08;6.71;79.61
75153;HTU21D;63734;45.218;36.708;2023-04-01T00:31:34;6.68;79.73
75153;HTU21D;63734;45.218;36.708;2023-04-01T00:34:00;6.65;79.94
75153;HTU21D;63734;45.218;36.708;2023-04-01T00:36:26;6.65;80.10
75153;HTU21D;63734;45.218;36.708;2023-04-01T00:38:52;6.63;80.20
75153;HTU21D;63734;45.218;36.708;2023-04-01T00:41:19;6.64;80.23
75153;HTU21D;63734;45.218;36.708;2023-04-01T00:43:49;6.64;80.65
75153;HTU21D;63734;45.218;36.708;2023-04-01T00:46:16;6.61;80.62
75153;HTU21D;63734;45.218;36.708;2023-04-01T00:48:47;6.60;80.52
75153;HTU21D;63734;45.218;36.708;2023-04-01T00:51:17;6.61;80.44
75153;HTU21D;63734;45.218;36.708;2023-04-01T00:53:49;6.61;80.27
75153;HTU21D;63734;45.218;36.708;2023-04-01T00:56:20;6.60;80.11
75153;HTU21D;63734;45.218;36.708;2023-04-01T00:58:51;6.59;80.41
75153;HTU21D;63734;45.218;36.708;2023-04-01T01:01:21;6.59;80.68
75153;HTU21D;63734;45.218;36.708;2023-04-01T01:03:48;6.60;80.84
75153;HTU21D;63734;45.218;36.708;2023-04-01T01:06:30;6.58;81.14
75153;HTU21D;63734;45.218;36.708;2023-04-01T01:12:01;6.52;81.26
75153;HTU21D;63734;45.218;36.708;2023-04-01T01:14:37;6.51;81.15
75153;HTU21D;63734;45.218;36.708;2023-04-01T01:17:14;6.49;81.20
75153;HTU21D;63734;45.218;36.708;2023-04-01T01:36:13;6.43;80.85
75153;HTU21D;63734;45.218;36.708;2023-04-01T01:38:41;6.42;80.78
75153;HTU21D;63734;45.218;36.708;2023-04-01T01:41:08;6.40;80.99
75153;HTU21D;63734;45.218;36.708;2023-04-01T01:43:40;6.40;81.34
75153;HTU21D;63734;45.218;36.708;2023-04-01T01:46:14;6.41;81.48
75153;HTU21D;63734;45.218;36.708;2023-04-01T01:48:42;6.40;81.44
75153;HTU21D;63734;45.218;36.708;2023-04-01T01:51:09;6.40;81.51
75153;HTU21D;63734;45.218;36.708;2023-04-01T01:53:36;6.43;81.51
75153;HTU21D;63734;45.218;36.708;2023-04-01T01:56:03;6.45;81.45
75153;HTU21D;63734;45.218;36.708;2023-04-01T01:58:36;6.45;81.43
75153;HTU21D;63734;45.218;36.708;2023-04-01T02:01:11;6.44;81.46
75153;HTU21D;63734;45.218;36.708;2023-04-01T02:03:56;6.43;81.43
75153;HTU21D;63734;45.218;36.708;2023-04-01T02:06:26;6.43;81.49
75153;HTU21D;63734;45.218;36.708;2023-04-01T02:09:07;6.42;81.44
75153;HTU21D;63734;45.218;36.708;2023-04-01T02:12:09;6.42;81.59
75153;HTU21D;63734;45.218;36.708;2023-04-01T02:17:10;6.42;81.88
75153;HTU21D;63734;45.218;36.708;2023-04-01T02:19:39;6.43;81.62
75153;HTU21D;63734;45.218;36.708;2023-04-01T02:22:10;6.45;81.44
75153;HTU21D;63734;45.218;36.708;2023-04-01T02:24:38;6.46;81.39
75153;HTU21D;63734;45.218;36.708;2023-04-01T02:27:05;6.48;81.26
75153;HTU21D;63734;45.218;36.708;2023-04-01T02:29:32;6.46;81.31
75153;HTU21D;63734;45.218;36.708;2023-04-01T02:31:58;6.50;81.43
75153;HTU21D;63734;45.218;36.708;2023-04-01T02:34:26;6.52;81.41
75153;HTU21D;63734;45.218;36.708;2023-04-01T02:36:52;6.50;81.48
75153;HTU21D;63734;45.218;36.708;2023-04-01T02:39:20;6.52;81.72
75153;HTU21D;63734;45.218;36.708;2023-04-01T02:41:46;6.53;81.91
75153;HTU21D;63734;45.218;36.708;2023-04-01T02:44:13;6.52;81.97
75153;HTU21D;63734;45.218;36.708;2023-04-01T02:46:40;6.53;81.99
75153;HTU21D;63734;45.218;36.708;2023-04-01T02:49:07;6.54;81.82
75153;HTU21D;63734;45.218;36.708;2023-04-01T02:51:33;6.55;81.56
75153;HTU21D;63734;45.218;36.708;2023-04-01T02:54:00;6.53;81.46
75153;HTU21D;63734;45.218;36.708;2023-04-01T02:56:26;6.52;81.38
75153;HTU21D;63734;45.218;36.708;2023-04-01T02:58:53;6.52;81.36
75153;HTU21D;63734;45.218;36.708;2023-04-01T03:01:20;6.52;81.30
75153;HTU21D;63734;45.218;36.708;2023-04-01T03:03:46;6.54;81.20
75153;HTU21D;63734;45.218;36.708;2023-04-01T03:06:15;6.57;81.39
75153;HTU21D;63734;45.218;36.708;2023-04-01T03:08:41;6.61;81.50
75153;HTU21D;63734;45.218;36.708;2023-04-01T03:11:08;6.61;81.59
75153;HTU21D;63734;45.218;36.708;2023-04-01T03:13:36;6.66;81.63
75153;HTU21D;63734;45.218;36.708;2023-04-01T03:16:02;6.66;81.76
75153;HTU21D;63734;45.218;36.708;2023-04-01T03:18:28;6.68;81.78
75153;HTU21D;63734;45.218;36.708;2023-04-01T03:20:56;6.76;81.66
75153;HTU21D;63734;45.218;36.708;2023-04-01T03:23:22;6.83;81.40
75153;HTU21D;63734;45.218;36.708;2023-04-01T03:25:50;6.88;81.06
75153;HTU21D;63734;45.218;36.708;2023-04-01T03:28:16;6.96;80.69
75153;HTU21D;63734;45.218;36.708;2023-04-01T03:30:42;7.04;80.14
75153;HTU21D;63734;45.218;36.708;2023-04-01T03:33:08;7.15;79.59
75153;HTU21D;63734;45.218;36.708;2023-04-01T03:35:35;7.24;79.31
75153;HTU21D;63734;45.218;36.708;2023-04-01T03:38:02;7.33;79.03
75153;HTU21D;63734;45.218;36.708;2023-04-01T03:40:29;7.44;78.76
75153;HTU21D;63734;45.218;36.708;2023-04-01T03:42:55;7.54;78.49
75153;HTU21D;63734;45.218;36.708;2023-04-01T03:45:21;7.62;78.03
75153;HTU21D;63734;45.218;36.708;2023-04-01T03:47:48;7.77;77.71
75153;HTU21D;63734;45.218;36.708;2023-04-01T03:50:14;7.89;77.31
75153;HTU21D;63734;45.218;36.708;2023-04-01T03:52:41;8.02;76.78
75153;HTU21D;63734;45.218;36.708;2023-04-01T03:55:07;8.16;76.10
75153;HTU21D;63734;45.218;36.708;2023-04-01T03:57:34;8.27;75.52
75153;HTU21D;63734;45.218;36.708;2023-04-01T04:00:11;8.36;74.43
75153;HTU21D;63734;45.218;36.708;2023-04-01T04:02:39;8.49;74.15
75153;HTU21D;63734;45.218;36.708;2023-04-01T04:05:07;8.59;73.83
75153;HTU21D;63734;45.218;36.708;2023-04-01T04:07:35;8.66;73.66
75153;HTU21D;63734;45.218;36.708;2023-04-01T04:10:05;8.72;73.24
75153;HTU21D;63734;45.218;36.708;2023-04-01T04:12:32;8.78;72.88
75153;HTU21D;63734;45.218;36.708;2023-04-01T04:14:58;8.88;72.51
75153;HTU21D;63734;45.218;36.708;2023-04-01T04:17:24;8.95;71.90
75153;HTU21D;63734;45.218;36.708;2023-04-01T04:19:50;9.02;71.98
75153;HTU21D;63734;45.218;36.708;2023-04-01T04:22:17;9.14;71.78
75153;HTU21D;63734;45.218;36.708;2023-04-01T04:24:43;9.23;71.37
75153;HTU21D;63734;45.218;36.708;2023-04-01T04:27:12;9.27;70.35
75153;HTU21D;63734;45.218;36.708;2023-04-01T04:29:49;9.32;70.00
75153;HTU21D;63734;45.218;36.708;2023-04-01T04:32:15;9.41;70.03
75153;HTU21D;63734;45.218;36.708;2023-04-01T04:34:41;9.56;70.23
75153;HTU21D;63734;45.218;36.708;2023-04-01T04:37:07;9.65;69.13
75153;HTU21D;63734;45.218;36.708;2023-04-01T04:39:35;9.68;69.47
75153;HTU21D;63734;45.218;36.708;2023-04-01T04:42:02;9.76;69.20
75153;HTU21D;63734;45.218;36.708;2023-04-01T04:44:28;9.83;69.03
75153;HTU21D;63734;45.218;36.708;2023-04-01T04:46:57;9.90;68.74
75153;HTU21D;63734;45.218;36.708;2023-04-01T04:49:23;9.91;68.46
75153;HTU21D;63734;45.218;36.708;2023-04-01T04:51:49;9.92;68.78
75153;HTU21D;63734;45.218;36.708;2023-04-01T04:54:17;10.00;69.03
75153;HTU21D;63734;45.218;36.708;2023-04-01T04:57:03;10.09;68.94
75153;HTU21D;63734;45.218;36.708;2023-04-01T04:59:33;10.11;69.16
75153;HTU21D;63734;45.218;36.708;2023-04-01T05:02:12;10.10;69.94
75153;HTU21D;63734;45.218;36.708;2023-04-01T05:04:38;10.24;69.95
75153;HTU21D;63734;45.218;36.708;2023-04-01T05:07:08;10.25;69.93
75153;HTU21D;63734;45.218;36.708;2023-04-01T05:09:34;10.33;70.13
75153;HTU21D;63734;45.218;36.708;2023-04-01T05:12:00;10.36;70.35
75153;HTU21D;63734;45.218;36.708;2023-04-01T05:14:37;10.38;70.55
75153;HTU21D;63734;45.218;36.708;2023-04-01T05:17:09;10.48;69.97
75153;HTU21D;63734;45.218;36.708;2023-04-01T05:19:36;10.48;70.34
75153;HTU21D;63734;45.218;36.708;2023-04-01T05:22:03;10.56;70.71
75153;HTU21D;63734;45.218;36.708;2023-04-01T05:24:29;10.67;70.13
75153;HTU21D;63734;45.218;36.708;2023-04-01T05:26:58;10.71;70.45
75153;HTU21D;63734;45.218;36.708;2023-04-01T05:29:26;10.83;70.61
75153;HTU21D;63734;45.218;36.708;2023-04-01T05:31:59;10.95;69.92
75153;HTU21D;63734;45.218;36.708;2023-04-01T05:34:25;10.84;68.70
75153;HTU21D;63734;45.218;36.708;2023-04-01T05:36:51;10.62;69.36
75153;HTU21D;63734;45.218;36.708;2023-04-01T05:39:17;10.63;70.16
75153;HTU21D;63734;45.218;36.708;2023-04-01T05:41:44;10.77;70.05
75153;HTU21D;63734;45.218;36.708;2023-04-01T05:44:12;10.95;69.55
75153;HTU21D;63734;45.218;36.708;2023-04-01T05:46:38;10.79;68.56
75153;HTU21D;63734;45.218;36.708;2023-04-01T05:49:12;10.24;70.02
75153;HTU21D;63734;45.218;36.708;2023-04-01T05:51:38;9.94;71.84
75153;HTU21D;63734;45.218;36.708;2023-04-01T05:54:05;10.11;72.73
75153;HTU21D;63734;45.218;36.708;2023-04-01T05:56:31;10.41;71.38
75153;HTU21D;63734;45.218;36.708;2023-04-01T05:58:59;10.51;71.01
75153;HTU21D;63734;45.218;36.708;2023-04-01T06:01:25;10.65;70.62
75153;HTU21D;63734;45.218;36.708;2023-04-01T06:03:51;10.95;70.27
75153;HTU21D;63734;45.218;36.708;2023-04-01T06:06:26;11.15;69.33
75153;HTU21D;63734;45.218;36.708;2023-04-01T06:12:17;10.96;69.14
75153;HTU21D;63734;45.218;36.708;2023-04-01T06:20:35;10.63;69.58
75153;HTU21D;63734;45.218;36.708;2023-04-01T06:46:23;9.56;75.24
75153;HTU21D;63734;45.218;36.708;2023-04-01T06:52:56;9.50;74.38
75153;HTU21D;63734;45.218;36.708;2023-04-01T06:55:53;9.37;75.06
75153;HTU21D;63734;45.218;36.708;2023-04-01T06:58:43;9.40;75.59
75153;HTU21D;63734;45.218;36.708;2023-04-01T07:01:16;9.33;76.59
75153;HTU21D;63734;45.218;36.708;2023-04-01T07:03:53;9.36;76.81
75153;HTU21D;63734;45.218;36.708;2023-04-01T07:09:00;9.29;76.95
75153;HTU21D;63734;45.218;36.708;2023-04-01T07:11:40;9.27;77.35
75153;HTU21D;63734;45.218;36.708;2023-04-01T07:14:41;9.38;77.22
75153;HTU21D;63734;45.218;36.708;2023-04-01T07:17:15;9.48;76.91
75153;HTU21D;63734;45.218;36.708;2023-04-01T07:19:50;9.49;76.74
75153;HTU21D;63734;45.218;36.708;2023-04-01T07:22:56;9.54;77.00
75153;HTU21D;63734;45.218;36.708;2023-04-01T07:25:38;9.59;77.11
75153;HTU21D;63734;45.218;36.708;2023-04-01T07:28:31;9.66;76.67
75153;HTU21D;63734;45.218;36.708;2023-04-01T07:34:14;9.65;76.77
75153;HTU21D;63734;45.218;36.708;2023-04-01T07:39:46;9.66;75.99
75153;HTU21D;63734;45.218;36.708;2023-04-01T07:45:31;9.71;75.97
75153;HTU21D;63734;45.218;36.708;2023-04-01T07:48:15;9.80;75.78
75153;HTU21D;63734;45.218;36.708;2023-04-01T08:02:20;10.12;75.05
75153;HTU21D;63734;45.218;36.708;2023-04-01T08:07:46;10.19;74.18
75153;HTU21D;63734;45.218;36.708;2023-04-01T08:10:52;10.36;74.14
75153;HTU21D;63734;45.218;36.708;2023-04-01T08:14:00;10.30;73.87
75153;HTU21D;63734;45.218;36.708;2023-04-01T08:16:43;10.33;73.72
75153;HTU21D;63734;45.218;36.708;2023-04-01T08:19:46;10.33;73.44
75153;HTU21D;63734;45.218;36.708;2023-04-01T08:22:38;10.27;73.74
75153;HTU21D;63734;45.218;36.708;2023-04-01T08:25:25;10.10;74.70
75153;HTU21D;63734;45.218;36.708;2023-04-01T08:30:49;9.88;74.80
75153;HTU21D;63734;45.218;36.708;2023-04-01T08:33:31;9.92;75.34
75153;HTU21D;63734;45.218;36.708;2023-04-01T08:36:29;10.18;74.87
75153;HTU21D;63734;45.218;36.708;2023-04-01T08:48:41;10.35;73.70
75153;HTU21D;63734;45.218;36.708;2023-04-01T08:53:33;10.44;73.53
75153;HTU21D;63734;45.218;36.708;2023-04-01T09:06:33;11.70;70.15
75153;HTU21D;63734;45.218;36.708;2023-04-01T09:28:12;11.38;70.09
75153;HTU21D;63734;45.218;36.708;2023-04-01T09:44:41;11.40;70.13
75153;HTU21D;63734;45.218;36.708;2023-04-01T09:47:40;11.02;71.95
75153;HTU21D;63734;45.218;36.708;2023-04-01T09:53:14;10.79;72.58
75153;HTU21D;63734;45.218;36.708;2023-04-01T10:13:42;10.85;71.25
75153;HTU21D;63734;45.218;36.708;2023-04-01T10:30:56;10.36;72.73
75153;HTU21D;63734;45.218;36.708;2023-04-01T10:33:54;10.52;73.22
75153;HTU21D;63734;45.218;36.708;2023-04-01T10:36:50;10.82;73.57
75153;HTU21D;63734;45.218;36.708;2023-04-01T10:48:50;10.83;72.21
75153;HTU21D;63734;45.218;36.708;2023-04-01T10:54:09;10.80;73.74
75153;HTU21D;63734;45.218;36.708;2023-04-01T11:01:03;10.60;73.13
75153;HTU21D;63734;45.218;36.708;2023-04-01T11:23:34;9.99;76.91
75153;HTU21D;63734;45.218;36.708;2023-04-01T11:29:32;10.15;77.34
75153;HTU21D;63734;45.218;36.708;2023-04-01T11:40:32;10.04;77.19
75153;HTU21D;63734;45.218;36.708;2023-04-01T11:43:49;9.91;77.95
75153;HTU21D;63734;45.218;36.708;2023-04-01T11:55:10;10.06;77.36
75153;HTU21D;63734;45.218;36.708;2023-04-01T12:08:52;9.66;79.11
75153;HTU21D;63734;45.218;36.708;2023-04-01T12:14:33;9.59;79.48
75153;HTU21D;63734;45.218;36.708;2023-04-01T12:28:03;9.41;80.43
75153;HTU21D;63734;45.218;36.708;2023-04-01T12:30:42;9.38;81.01
75153;HTU21D;63734;45.218;36.708;2023-04-01T12:41:57;9.23;81.20
75153;HTU21D;63734;45.218;36.708;2023-04-01T13:00:12;9.18;80.17
75153;HTU21D;63734;45.218;36.708;2023-04-01T13:05:37;9.21;80.44
75153;HTU21D;63734;45.218;36.708;2023-04-01T13:16:46;9.26;81.39
75153;HTU21D;63734;45.218;36.708;2023-04-01T13:22:58;9.23;79.77
75153;HTU21D;63734;45.218;36.708;2023-04-01T13:25:46;9.24;79.65
75153;HTU21D;63734;45.218;36.708;2023-04-01T13:28:25;9.24;79.52
75153;HTU21D;63734;45.218;36.708;2023-04-01T13:31:03;9.25;79.40
75153;HTU21D;63734;45.218;36.708;2023-04-01T13:36:23;9.19;79.03
75153;HTU21D;63734;45.218;36.708;2023-04-01T13:39:02;9.18;79.54
75153;HTU21D;63734;45.218;36.708;2023-04-01T13:41:58;9.20;79.69
75153;HTU21D;63734;45.218;36.708;2023-04-01T13:58:45;9.08;78.71
75153;HTU21D;63734;45.218;36.708;2023-04-01T14:01:40;9.05;79.15
75153;HTU21D;63734;45.218;36.708;2023-04-01T14:04:27;9.06;79.82
75153;HTU21D;63734;45.218;36.708;2023-04-01T14:07:06;9.07;79.98
75153;HTU21D;63734;45.218;36.708;2023-04-01T14:23:29;9.04;79.08
75153;HTU21D;63734;45.218;36.708;2023-04-01T14:28:56;9.06;78.54
75153;HTU21D;63734;45.218;36.708;2023-04-01T14:40:05;9.10;80.17
75153;HTU21D;63734;45.218;36.708;2023-04-01T14:42:55;9.09;80.62
75153;HTU21D;63734;45.218;36.708;2023-04-01T14:48:14;9.07;79.95
75153;HTU21D;63734;45.218;36.708;2023-04-01T14:50:51;9.06;79.43
75153;HTU21D;63734;45.218;36.708;2023-04-01T14:56:00;9.07;78.85
75153;HTU21D;63734;45.218;36.708;2023-04-01T14:58:47;9.08;78.69
75153;HTU21D;63734;45.218;36.708;2023-04-01T15:07:02;9.07;79.43
75153;HTU21D;63734;45.218;36.708;2023-04-01T15:12:23;9.09;79.95
75153;HTU21D;63734;45.218;36.708;2023-04-01T15:15:16;9.10;80.43
75153;HTU21D;63734;45.218;36.708;2023-04-01T15:18:19;9.08;79.64
75153;HTU21D;63734;45.218;36.708;2023-04-01T15:28:47;9.01;81.18
75153;HTU21D;63734;45.218;36.708;2023-04-01T15:47:28;8.78;79.96
75153;HTU21D;63734;45.218;36.708;2023-04-01T16:09:36;8.65;81.23
75153;HTU21D;63734;45.218;36.708;2023-04-01T16:12:36;8.64;81.21
75153;HTU21D;63734;45.218;36.708;2023-04-01T16:15:21;8.63;81.47
75153;HTU21D;63734;45.218;36.708;2023-04-01T16:28:54;8.53;81.79
75153;HTU21D;63734;45.218;36.708;2023-04-01T16:31:46;8.51;82.01
75153;HTU21D;63734;45.218;36.708;2023-04-01T16:34:16;8.50;82.01
75153;HTU21D;63734;45.218;36.708;2023-04-01T16:42:52;8.45;81.97
75153;HTU21D;63734;45.218;36.708;2023-04-01T16:48:09;8.38;82.60
75153;HTU21D;63734;45.218;36.708;2023-04-01T16:51:04;8.34;83.35
75153;HTU21D;63734;45.218;36.708;2023-04-01T16:53:45;8.32;83.85
75153;HTU21D;63734;45.218;36.708;2023-04-01T16:59:02;8.28;84.39
75153;HTU21D;63734;45.218;36.708;2023-04-01T17:01:40;8.29;84.39
75153;HTU21D;63734;45.218;36.708;2023-04-01T17:04:27;8.27;84.37
75153;HTU21D;63734;45.218;36.708;2023-04-01T17:15:33;8.24;83.89
75153;HTU21D;63734;45.218;36.708;2023-04-01T17:20:59;8.23;84.84
75153;HTU21D;63734;45.218;36.708;2023-04-01T17:23:36;8.21;85.08
75153;HTU21D;63734;45.218;36.708;2023-04-01T17:34:44;8.23;85.48
75153;HTU21D;63734;45.218;36.708;2023-04-01T17:40:06;8.26;84.93
75153;HTU21D;63734;45.218;36.708;2023-04-01T17:42:42;8.28;84.39
75153;HTU21D;63734;45.218;36.708;2023-04-01T17:45:22;8.30;83.98
75153;HTU21D;63734;45.218;36.708;2023-04-01T17:48:03;8.28;83.82
75153;HTU21D;63734;45.218;36.708;2023-04-01T17:56:14;8.30;84.10
75153;HTU21D;63734;45.218;36.708;2023-04-01T18:08:08;8.26;84.02
75153;HTU21D;63734;45.218;36.708;2023-04-01T18:13:51;8.30;83.52
75153;HTU21D;63734;45.218;36.708;2023-04-01T18:21:40;8.35;82.71
75153;HTU21D;63734;45.218;36.708;2023-04-01T18:26:51;8.33;83.13
75153;HTU21D;63734;45.218;36.708;2023-04-01T18:29:40;8.31;83.66
75153;HTU21D;63734;45.218;36.708;2023-04-01T18:37:28;8.30;84.48
75153;HTU21D;63734;45.218;36.708;2023-04-01T18:45:31;8.22;84.04
75153;HTU21D;63734;45.218;36.708;2023-04-01T18:48:43;8.21;84.71
75153;HTU21D;63734;45.218;36.708;2023-04-01T18:51:21;8.17;85.48
75153;HTU21D;63734;45.218;36.708;2023-04-01T18:56:44;8.14;85.11
75153;HTU21D;63734;45.218;36.708;2023-04-01T18:59:18;8.16;84.84
75153;HTU21D;63734;45.218;36.708;2023-04-01T19:07:48;8.15;86.25
75153;HTU21D;63734;45.218;36.708;2023-04-01T19:10:40;8.16;86.90
75153;HTU21D;63734;45.218;36.708;2023-04-01T19:13:24;8.15;87.04
75153;HTU21D;63734;45.218;36.708;2023-04-01T19:21:44;8.15;86.52
75153;HTU21D;63734;45.218;36.708;2023-04-01T19:35:40;8.16;86.84
75153;HTU21D;63734;45.218;36.708;2023-04-01T19:38:37;8.16;86.82
75153;HTU21D;63734;45.218;36.708;2023-04-01T19:44:06;8.16;86.49
75153;HTU21D;63734;45.218;36.708;2023-04-01T19:52:46;8.12;87.10
75153;HTU21D;63734;45.218;36.708;2023-04-01T19:55:40;8.09;87.40
75153;HTU21D;63734;45.218;36.708;2023-04-01T19:58:25;8.08;87.23
75153;HTU21D;63734;45.218;36.708;2023-04-01T20:00:57;8.09;86.94
75153;HTU21D;63734;45.218;36.708;2023-04-01T20:08:48;8.08;86.54
75153;HTU21D;63734;45.218;36.708;2023-04-01T20:11:44;8.11;86.48
75153;HTU21D;63734;45.218;36.708;2023-04-01T20:14:36;8.11;86.32
75153;HTU21D;63734;45.218;36.708;2023-04-01T20:26:49;8.07;86.67
75153;HTU21D;63734;45.218;36.708;2023-04-01T20:51:31;8.15;85.52
75153;HTU21D;63734;45.218;36.708;2023-04-01T20:57:06;8.16;86.18
75153;HTU21D;63734;45.218;36.708;2023-04-01T21:08:13;8.15;85.85
75153;HTU21D;63734;45.218;36.708;2023-04-01T21:13:30;8.18;85.67
75153;HTU21D;63734;45.218;36.708;2023-04-01T21:29:24;8.14;86.46
75153;HTU21D;63734;45.218;36.708;2023-04-01T21:32:19;8.13;87.09
75153;HTU21D;63734;45.218;36.708;2023-04-01T21:53:30;8.14;87.37
75153;HTU21D;63734;45.218;36.708;2023-04-01T22:04:53;8.13;87.09
75153;HTU21D;63734;45.218;36.708;2023-04-01T22:07:36;8.16;87.41
75153;HTU21D;63734;45.218;36.708;2023-04-01T22:10:29;8.17;87.44
75153;HTU21D;63734;45.218;36.708;2023-04-01T22:15:59;8.15;87.54
75153;HTU21D;63734;45.218;36.708;2023-04-01T22:18:34;8.13;87.46
75153;HTU21D;63734;45.218;36.708;2023-04-01T22:21:48;8.11;87.38
75153;HTU21D;63734;45.218;36.708;2023-04-01T22:27:00;8.06;87.85
75153;HTU21D;63734;45.218;36.708;2023-04-01T22:29:42;8.06;88.07
75153;HTU21D;63734;45.218;36.708;2023-04-01T22:32:19;8.05;87.80
75153;HTU21D;63734;45.218;36.708;2023-04-01T22:43:00;8.00;88.39
75153;HTU21D;63734;45.218;36.708;2023-04-01T22:48:39;7.98;87.72
75153;HTU21D;63734;45.218;36.708;2023-04-01T22:54:02;7.99;87.25
75153;HTU21D;63734;45.218;36.708;2023-04-01T22:56:31;7.98;86.86
75153;HTU21D;63734;45.218;36.708;2023-04-01T22:59:13;7.96;86.74
75153;HTU21D;63734;45.218;36.708;2023-04-01T23:01:49;7.93;86.66
75153;HTU21D;63734;45.218;36.708;2023-04-01T23:04:23;7.92;86.28
75153;HTU21D;63734;45.218;36.708;2023-04-01T23:06:56;7.92;85.78
75153;HTU21D;63734;45.218;36.708;2023-04-01T23:09:54;7.93;85.64
75153;HTU21D;63734;45.218;36.708;2023-04-01T23:12:23;7.91;85.76
75153;HTU21D;63734;45.218;36.708;2023-04-01T23:14:59;7.91;85.74
75153;HTU21D;63734;45.218;36.708;2023-04-01T23:20:21;7.89;85.96
75153;HTU21D;63734;45.218;36.708;2023-04-01T23:29:28;7.89;85.38
75153;HTU21D;63734;45.218;36.708;2023-04-01T23:32:03;7.87;85.35
75153;HTU21D;63734;45.218;36.708;2023-04-01T23:34:34;7.86;85.45
75153;HTU21D;63734;45.218;36.708;2023-04-01T23:37:04;7.85;85.71
75153;HTU21D;63734;45.218;36.708;2023-04-01T23:39:37;7.85;86.14
75153;HTU21D;63734;45.218;36.708;2023-04-01T23:44:53;7.91;85.96
75153;HTU21D;63734;45.218;36.708;2023-04-01T23:47:23;7.92;85.75
75153;HTU21D;63734;45.218;36.708;2023-04-01T23:50:07;7.91;86.02
75153;HTU21D;63734;45.218;36.708;2023-04-01T23:52:40;7.91;86.31
75153;HTU21D;63734;45.218;36.708;2023-04-01T23:57:37;7.90;86.36
